Time;durP1;ratioP1;P1;durP2;ratioP2;P2;SDS_P1;SDS_P2;PMS_P1;PMS_P2;Temp;Humidity;BMP_temperature;BMP_pressure;BME280_temperature;BME280_humidity;BME280_pressure;Samples;Min_cycle;Max_cycle;Signal;HPM_P1;HPM_P2
2022/12/20 00:00:42;;;;;;;20.33;17.10;;;;;;;19.73;46.48;102665.97;4790381;30;20051;-48
2022/12/20 00:03:09;;;;;;;19.65;15.63;;;;;;;19.73;46.64;102657.06;4790013;30;20055;-49
2022/12/20 00:05:38;;;;;;;18.75;16.40;;;;;;;19.73;46.84;102657.91;4789438;29;20063;-49
2022/12/20 00:08:07;;;;;;;19.50;15.18;;;;;;;19.73;46.65;102655.22;4790366;30;20060;-50
2022/12/20 00:10:39;;;;;;;18.85;15.18;;;;;;;19.72;46.70;102653.47;4789745;30;20047;-49
2022/12/20 00:13:07;;;;;;;21.30;16.73;;;;;;;19.72;46.29;102648.09;4789471;29;20414;-49
2022/12/20 00:15:34;;;;;;;20.88;15.82;;;;;;;19.72;46.26;102648.09;4789305;29;20059;-48
2022/12/20 00:18:03;;;;;;;23.02;16.65;;;;;;;19.72;46.18;102647.22;4789970;30;20059;-47
2022/12/20 00:20:30;;;;;;;21.63;16.13;;;;;;;19.70;45.90;102643.78;4790205;30;20062;-48
2022/12/20 00:22:57;;;;;;;20.80;17.45;;;;;;;19.70;45.76;102649.16;4790121;30;20055;-49
2022/12/20 00:25:25;;;;;;;19.40;16.50;;;;;;;19.69;45.70;102655.50;4790157;30;20051;-48
2022/12/20 00:27:52;;;;;;;17.98;15.75;;;;;;;19.69;45.62;102645.59;4789929;30;20066;-49
2022/12/20 00:30:19;;;;;;;18.42;15.52;;;;;;;19.68;45.63;102645.69;4790196;30;20056;-48
2022/12/20 00:32:47;;;;;;;20.65;16.40;;;;;;;19.68;45.60;102649.22;4789968;29;20530;-48
2022/12/20 00:35:14;;;;;;;21.70;16.92;;;;;;;19.67;45.70;102647.50;4790039;30;20047;-47
2022/12/20 00:37:41;;;;;;;18.58;16.25;;;;;;;19.67;45.72;102646.66;4789818;30;20058;-48
2022/12/20 00:40:09;;;;;;;20.63;16.85;;;;;;;19.66;45.56;102651.16;4789760;30;20056;-48
2022/12/20 00:42:36;;;;;;;19.85;16.42;;;;;;;19.66;45.24;102648.47;4788511;30;20055;-49
2022/12/20 00:45:04;;;;;;;19.90;16.75;;;;;;;19.66;45.46;102647.59;4789367;30;20051;-48
2022/12/20 00:47:32;;;;;;;19.90;16.33;;;;;;;19.65;45.38;102640.50;4789297;30;20059;-50
2022/12/20 00:49:59;;;;;;;21.90;17.65;;;;;;;19.64;45.33;102642.31;4789211;30;20403;-50
2022/12/20 00:52:27;;;;;;;19.90;16.35;;;;;;;19.64;45.27;102633.38;4789405;30;20055;-49
2022/12/20 00:54:54;;;;;;;19.88;16.25;;;;;;;19.63;45.32;102627.16;4803187;29;20062;-52
2022/12/20 00:57:21;;;;;;;18.13;15.65;;;;;;;19.63;45.32;102632.53;4789317;30;20515;-50
2022/12/20 00:59:48;;;;;;;18.15;15.50;;;;;;;19.63;45.36;102635.22;4789276;29;20066;-50
2022/12/20 01:02:16;;;;;;;18.88;15.88;;;;;;;19.63;45.16;102631.66;4789389;30;20383;-52
2022/12/20 01:04:43;;;;;;;17.65;15.35;;;;;;;19.62;45.38;102636.16;4789144;30;20047;-51
2022/12/20 01:07:10;;;;;;;20.02;15.75;;;;;;;19.61;45.08;102629.06;4789282;30;20062;-50
2022/12/20 01:09:38;;;;;;;24.35;16.20;;;;;;;19.61;45.21;102633.56;4789487;29;20059;-50
2022/12/20 01:12:05;;;;;;;18.63;16.10;;;;;;;19.60;45.09;102632.66;4789220;30;20055;-50
2022/12/20 01:14:32;;;;;;;18.73;15.23;;;;;;;19.60;44.93;102624.59;4789139;30;20051;-48
2022/12/20 01:17:00;;;;;;;18.52;15.95;;;;;;;19.61;44.99;102634.44;4787585;30;20055;-47
2022/12/20 01:19:27;;;;;;;20.92;16.35;;;;;;;19.61;45.14;102622.81;4787985;30;20391;-49
2022/12/20 01:21:54;;;;;;;22.35;17.00;;;;;;;19.60;45.22;102627.28;4789005;30;20391;-50
2022/12/20 01:24:22;;;;;;;20.50;17.42;;;;;;;19.58;45.32;102618.47;4787823;29;20055;-48
2022/12/20 01:26:49;;;;;;;18.65;15.88;;;;;;;19.58;45.14;102623.84;4789214;30;20051;-49
2022/12/20 01:29:17;;;;;;;19.27;16.33;;;;;;;19.59;45.33;102624.69;4787716;30;20062;-48
2022/12/20 01:31:45;;;;;;;18.48;16.13;;;;;;;19.58;45.18;102618.47;4788931;30;20051;-49
2022/12/20 01:34:12;;;;;;;20.13;16.75;;;;;;;19.58;45.20;102629.22;4787527;30;20055;-48
2022/12/20 01:36:39;;;;;;;19.10;15.20;;;;;;;19.57;45.28;102627.50;4788925;30;20406;-49
2022/12/20 01:39:11;;;;;;;19.63;15.50;;;;;;;19.57;45.25;102626.59;4788961;30;20399;-48
2022/12/20 01:41:39;;;;;;;21.60;16.80;;;;;;;19.57;45.11;102627.50;4788768;30;20047;-50
2022/12/20 01:44:26;;;;;;;18.75;16.10;;;;;;;19.56;45.05;102619.50;4788758;30;20074;-47
2022/12/20 01:46:54;;;;;;;18.23;15.30;;;;;;;19.56;45.34;102617.69;4796601;29;20070;-47
2022/12/20 01:49:22;;;;;;;19.23;16.23;;;;;;;19.56;45.35;102622.19;4789011;29;20074;-48
2022/12/20 01:52:01;;;;;;;18.02;15.52;;;;;;;19.55;45.45;102621.31;4788970;29;20062;-47
2022/12/20 01:54:34;;;;;;;19.98;16.35;;;;;;;19.55;45.45;102607.91;4788702;30;20055;-49
2022/12/20 01:57:07;;;;;;;20.48;17.20;;;;;;;19.55;45.25;102613.25;4788434;29;20062;-48
2022/12/20 01:59:36;;;;;;;;;;;;;;;19.55;45.35;102602.53;4787990;29;20406;-50
2022/12/20 02:02:08;;;;;;;18.50;16.20;;;;;;;19.55;45.32;102596.28;4787733;29;20435;-48
2022/12/20 02:04:36;;;;;;;20.33;16.30;;;;;;;19.55;45.23;102602.53;4788626;30;20414;-50
2022/12/20 02:07:04;;;;;;;18.27;15.68;;;;;;;19.56;45.34;102581.88;4788859;30;20280;-50
2022/12/20 02:09:33;;;;;;;20.00;16.25;;;;;;;19.55;45.46;102591.78;4788506;30;20051;-49
2022/12/20 02:12:27;;;;;;;21.40;16.23;;;;;;;19.56;45.39;102589.94;4788605;30;20051;-47
2022/12/20 02:15:03;;;;;;;;;;;;;;;19.54;45.43;102592.75;4788798;30;20055;-57
2022/12/20 02:17:49;;;;;;;19.33;15.55;;;;;;;19.54;45.39;102584.69;4788438;30;19933;-57
2022/12/20 02:20:25;;;;;;;19.65;16.20;;;;;;;19.54;45.38;102584.69;4788542;30;20051;-57
2022/12/20 02:22:56;;;;;;;18.48;16.13;;;;;;;19.54;45.38;102573.94;4787121;29;20418;-57
2022/12/20 02:25:53;;;;;;;19.60;16.23;;;;;;;19.54;45.39;102573.94;4788017;30;20047;-58
2022/12/20 02:28:44;;;;;;;18.15;14.25;;;;;;;19.52;45.48;102574.00;4787955;30;20051;-57
2022/12/20 02:31:16;;;;;;;18.92;15.90;;;;;;;19.52;45.33;102578.53;4788161;30;20414;-57
2022/12/20 02:33:47;;;;;;;18.55;15.65;;;;;;;19.52;45.32;102576.69;4788254;30;20058;-57
2022/12/20 02:36:18;;;;;;;17.30;14.57;;;;;;;19.52;45.54;102570.47;4786994;29;20062;-57
2022/12/20 02:38:50;;;;;;;18.77;15.45;;;;;;;19.51;45.42;102561.53;4790637;29;20062;-57
2022/12/20 02:41:28;;;;;;;17.33;14.90;;;;;;;19.50;45.43;102562.50;4790463;30;20063;-57
2022/12/20 02:46:52;;;;;;;20.30;15.63;;;;;;;19.52;45.51;102562.41;4791765;30;20059;-57
2022/12/20 02:49:24;;;;;;;17.63;14.73;;;;;;;19.51;45.45;102564.22;4791623;30;20059;-58
2022/12/20 02:51:54;;;;;;;16.47;14.00;;;;;;;19.51;45.51;102553.47;4791650;30;20055;-57
2022/12/20 02:54:23;;;;;;;16.90;15.13;;;;;;;19.50;45.56;102556.28;4790288;29;20398;-57
2022/12/20 02:56:59;;;;;;;18.88;15.40;;;;;;;19.50;45.56;102553.59;4791413;29;20059;-57
2022/12/20 02:59:35;;;;;;;18.45;15.63;;;;;;;19.50;45.62;102553.59;4790382;29;20058;-57
2022/12/20 03:02:04;;;;;;;19.90;15.23;;;;;;;19.49;45.61;102550.03;4790655;29;20055;-57
2022/12/20 03:04:37;;;;;;;20.00;16.45;;;;;;;19.49;45.55;102557.22;4790382;30;20487;-57
2022/12/20 03:07:10;;;;;;;19.60;15.82;;;;;;;19.48;45.78;102545.59;4791707;30;20402;-57
2022/12/20 03:09:41;;;;;;;20.77;15.68;;;;;;;19.48;45.61;102553.66;4789420;30;20059;-57
2022/12/20 03:12:10;;;;;;;19.05;15.18;;;;;;;19.48;45.64;102542.06;4790241;29;20059;-58
2022/12/20 03:14:38;;;;;;;16.58;14.73;;;;;;;19.47;45.69;102551.06;4790997;30;20397;-58
2022/12/20 03:17:08;;;;;;;17.05;14.75;;;;;;;19.47;45.69;102535.81;4790173;29;20047;-57
2022/12/20 03:19:37;;;;;;;17.35;14.70;;;;;;;19.47;45.76;102543.88;4791632;29;20427;-57
2022/12/20 03:22:05;;;;;;;18.77;15.18;;;;;;;19.46;45.77;102544.84;4791426;29;20059;-57
2022/12/20 03:24:33;;;;;;;18.40;15.80;;;;;;;19.46;45.81;102539.47;4790361;29;20063;-57
2022/12/20 03:27:01;;;;;;;16.77;14.57;;;;;;;19.46;46.01;102543.97;4791390;29;20063;-57
2022/12/20 03:29:28;;;;;;;17.00;14.30;;;;;;;19.46;45.89;102534.09;4790245;29;20059;-57
2022/12/20 03:31:55;;;;;;;18.42;14.90;;;;;;;19.46;45.86;102531.41;4791000;30;20055;-58
2022/12/20 03:34:23;;;;;;;17.33;14.48;;;;;;;19.46;46.00;102525.16;4791009;30;20402;-57
2022/12/20 03:36:50;;;;;;;18.00;14.80;;;;;;;19.45;45.98;102523.44;4789628;30;20093;-57
2022/12/20 03:39:18;;;;;;;18.42;15.05;;;;;;;19.46;45.77;102522.50;4791049;30;20367;-57
2022/12/20 03:41:45;;;;;;;19.52;14.80;;;;;;;19.46;46.04;102517.13;4789795;29;20067;-57
2022/12/20 03:44:16;;;;;;;17.65;14.18;;;;;;;19.46;45.91;102517.13;4789851;29;20063;-57
2022/12/20 03:46:44;;;;;;;16.65;13.82;;;;;;;19.45;46.09;102518.09;4789461;30;20059;-51
2022/12/20 03:49:11;;;;;;;19.05;15.10;;;;;;;19.45;45.98;102524.31;4789375;29;20058;-49
2022/12/20 03:51:45;;;;;;;17.80;14.52;;;;;;;19.45;45.92;102526.13;4789425;30;20059;-47
2022/12/20 03:54:13;;;;;;;17.45;14.48;;;;;;;19.44;46.19;102519.00;4789870;29;20051;-48
2022/12/20 03:56:57;;;;;;;18.95;14.82;;;;;;;19.44;46.14;102529.75;4789369;29;20410;-48
2022/12/20 03:59:25;;;;;;;17.13;14.50;;;;;;;19.44;46.26;102533.31;4789325;29;20066;-50
2022/12/20 04:01:52;;;;;;;17.10;13.77;;;;;;;19.44;46.09;102545.88;4789452;29;20082;-49
2022/12/20 04:04:20;;;;;;;16.33;14.40;;;;;;;19.44;46.23;102536.00;4789205;30;20066;-48
2022/12/20 04:06:47;;;;;;;18.95;13.80;;;;;;;19.43;46.03;102534.28;4790755;30;20051;-48
2022/12/20 04:09:15;;;;;;;16.17;13.25;;;;;;;19.44;46.32;102532.44;4789390;29;20063;-49
2022/12/20 04:11:47;;;;;;;18.13;15.00;;;;;;;19.44;46.42;102536.00;4789210;30;20067;-48
2022/12/20 04:14:15;;;;;;;19.13;15.20;;;;;;;19.43;46.42;102525.34;4789501;29;20082;-48
2022/12/20 04:16:43;;;;;;;18.50;14.75;;;;;;;19.43;46.50;102525.34;4789388;29;20082;-48
2022/12/20 04:19:11;;;;;;;19.52;13.98;;;;;;;19.44;46.59;102524.38;4789202;30;20061;-48
2022/12/20 04:21:42;;;;;;;16.42;14.27;;;;;;;19.42;46.63;102519.13;4789234;29;20055;-49
2022/12/20 04:24:11;;;;;;;19.60;13.35;;;;;;;19.43;46.80;102523.53;4789012;30;20063;-49
2022/12/20 04:26:56;;;;;;;16.92;14.82;;;;;;;19.43;46.74;102525.34;4796415;29;20058;-50
2022/12/20 04:29:24;;;;;;;18.33;14.25;;;;;;;19.43;46.87;102518.16;4789103;29;20066;-51
2022/12/20 04:31:52;;;;;;;20.63;14.55;;;;;;;19.42;46.70;102516.44;4789025;29;20070;-51
2022/12/20 04:34:21;;;;;;;17.40;14.55;;;;;;;19.43;46.79;102525.34;4788855;29;20063;-57
2022/12/20 04:36:48;;;;;;;17.27;14.10;;;;;;;19.43;46.92;102518.16;4788260;30;20059;-57
2022/12/20 04:39:24;;;;;;;15.40;13.02;;;;;;;19.43;46.77;102517.28;4788320;30;20429;-57
2022/12/20 04:42:20;;;;;;;15.45;12.80;;;;;;;19.41;46.72;102514.72;4790107;29;20058;-57
2022/12/20 04:44:49;;;;;;;21.42;15.27;;;;;;;19.41;46.74;102517.41;4790013;29;20082;-57
2022/12/20 04:47:22;;;;;;;;;;;;;;;19.41;46.71;102513.84;4789209;29;20066;-58
2022/12/20 04:49:51;;;;;;;19.85;14.57;;;;;;;19.40;46.69;102506.72;4788905;29;19933;-57
2022/12/20 04:55:14;;;;;;;18.15;14.18;;;;;;;19.40;46.44;102506.72;4788459;29;20055;-57
2022/12/20 04:57:41;;;;;;;18.88;13.80;;;;;;;19.40;46.65;102512.09;4789686;30;20479;-58
2022/12/20 05:00:09;;;;;;;16.35;13.73;;;;;;;19.40;46.57;102501.34;4787687;29;20055;-57
2022/12/20 05:02:42;;;;;;;18.13;14.98;;;;;;;19.39;46.54;102492.44;4787570;30;20059;-57
2022/12/20 05:05:13;;;;;;;17.42;14.32;;;;;;;19.39;46.65;102491.56;4788099;29;20066;-57
2022/12/20 05:07:47;;;;;;;16.90;13.07;;;;;;;19.39;46.82;102489.75;4788322;29;20537;-56
2022/12/20 05:10:14;;;;;;;17.45;14.73;;;;;;;19.39;46.60;102496.94;4788505;29;20055;-56
2022/12/20 05:12:43;;;;;;;20.98;15.60;;;;;;;19.39;46.55;102495.13;4788624;29;20062;-57
2022/12/20 05:15:18;;;;;;;20.02;14.90;;;;;;;19.39;46.69;102499.63;4788066;30;20051;-57
2022/12/20 05:17:45;;;;;;;17.65;13.48;;;;;;;19.40;46.68;102501.34;4788208;29;20055;-57
2022/12/20 05:20:13;;;;;;;16.20;13.45;;;;;;;19.39;46.52;102494.25;4788072;30;20399;-57
2022/12/20 05:28:16;;;;;;;15.73;12.68;;;;;;;19.38;46.70;102488.03;4787905;29;20055;-58
2022/12/20 05:30:43;;;;;;;15.73;13.38;;;;;;;19.38;46.61;102488.03;4787790;29;20375;-58
2022/12/20 05:33:10;;;;;;;17.50;13.82;;;;;;;19.38;46.79;102492.53;4787518;30;20062;-57
2022/12/20 05:35:41;;;;;;;18.25;14.00;;;;;;;19.36;46.70;102484.56;4788044;29;20066;-59
2022/12/20 05:38:11;;;;;;;17.08;13.65;;;;;;;19.37;46.54;102480.06;4787468;30;20391;-63
2022/12/20 05:40:40;;;;;;;15.88;12.95;;;;;;;19.37;46.72;102483.63;4787577;30;20059;-56
2022/12/20 05:43:08;;;;;;;16.42;13.95;;;;;;;19.37;46.76;102491.69;4787929;29;20059;-56
2022/12/20 05:45:46;;;;;;;17.63;14.30;;;;;;;19.37;46.82;102477.38;4787950;29;20063;-57
2022/12/20 05:48:17;;;;;;;19.05;13.85;;;;;;;19.36;46.77;102478.31;4787923;29;20056;-58
2022/12/20 05:50:46;;;;;;;17.30;12.50;;;;;;;19.36;46.86;102475.63;4787542;30;20055;-58
2022/12/20 05:53:33;;;;;;;15.70;13.57;;;;;;;19.36;46.73;102473.81;4788828;29;20070;-57
2022/12/20 05:56:03;;;;;;;16.90;13.75;;;;;;;19.35;46.68;102474.78;4788729;29;20059;-57
2022/12/20 05:58:34;;;;;;;15.45;13.15;;;;;;;19.36;46.72;102468.44;4787850;29;20060;-58
2022/12/20 06:01:06;;;;;;;16.38;13.68;;;;;;;19.35;46.83;102471.22;4787304;30;20066;-57
2022/12/20 06:03:40;;;;;;;18.30;14.00;;;;;;;19.36;46.85;102459.53;4787156;30;20071;-58
2022/12/20 06:06:16;;;;;;;17.77;13.10;;;;;;;19.34;46.87;102462.31;4787460;29;20387;-58
2022/12/20 06:08:46;;;;;;;17.80;14.45;;;;;;;19.35;46.72;102460.50;4787481;29;20059;-57
2022/12/20 06:11:29;;;;;;;17.27;13.60;;;;;;;19.33;46.90;102457.91;4786994;30;20066;-57
2022/12/20 06:14:12;;;;;;;16.98;13.02;;;;;;;19.34;46.90;102464.13;4788693;30;20490;-57
2022/12/20 06:16:45;;;;;;;16.30;13.27;;;;;;;19.33;46.97;102462.41;4788476;29;20063;-57
2022/12/20 06:19:15;;;;;;;17.85;14.23;;;;;;;19.32;46.83;102455.28;4787164;30;20051;-57
2022/12/20 06:21:49;;;;;;;17.73;13.27;;;;;;;19.31;47.04;102458.94;4787555;29;20066;-57
2022/12/20 06:24:26;;;;;;;19.08;14.43;;;;;;;19.31;46.94;102458.94;4787677;29;20510;-57
2022/12/20 06:26:53;;;;;;;17.42;14.00;;;;;;;19.32;47.02;102464.22;4787265;30;20059;-58
2022/12/20 06:29:23;;;;;;;16.95;14.02;;;;;;;19.32;46.98;102463.34;4787321;29;20054;-58
2022/12/20 06:31:57;;;;;;;16.50;13.75;;;;;;;19.33;46.85;102467.78;4786886;30;20059;-58
2022/12/20 06:34:26;;;;;;;15.80;13.02;;;;;;;19.32;47.12;102460.66;4788289;29;20426;-58
2022/12/20 06:36:54;;;;;;;16.20;12.88;;;;;;;19.32;46.71;102461.53;4772080;30;20063;-59
2022/12/20 06:39:25;;;;;;;18.65;13.82;;;;;;;19.32;46.84;102460.66;4786732;30;20051;-58
2022/12/20 06:42:01;;;;;;;16.73;12.90;;;;;;;19.31;46.91;102459.81;4787095;29;20059;-58
2022/12/20 06:44:28;;;;;;;14.85;12.80;;;;;;;19.31;47.00;102454.44;4786778;30;20052;-59
2022/12/20 06:46:56;;;;;;;19.90;14.35;;;;;;;19.32;46.80;102466.03;4786903;29;20062;-58
2022/12/20 06:49:23;;;;;;;16.92;13.57;;;;;;;19.31;46.84;102453.56;4786763;29;20051;-57
2022/12/20 06:51:51;;;;;;;15.50;12.88;;;;;;;19.32;46.99;102463.34;4786839;30;20074;-57
2022/12/20 06:54:24;;;;;;;16.25;13.90;;;;;;;19.32;46.80;102457.97;4787122;30;20059;-57
2022/12/20 06:56:52;;;;;;;16.55;13.38;;;;;;;19.31;46.91;102457.13;4788077;29;20060;-56
2022/12/20 06:59:19;;;;;;;16.25;13.50;;;;;;;19.31;46.96;102454.44;4787097;29;20052;-56
2022/12/20 07:01:46;;;;;;;15.73;13.38;;;;;;;19.31;46.99;102461.63;4788208;30;20055;-56
2022/12/20 07:04:14;;;;;;;16.58;13.45;;;;;;;19.32;46.63;102466.03;4788424;30;20059;-57
2022/12/20 07:06:41;;;;;;;18.17;14.00;;;;;;;19.31;46.89;102464.31;4788028;30;20051;-57
2022/12/20 07:09:08;;;;;;;20.65;14.35;;;;;;;19.30;46.87;102468.81;4788118;30;20048;-58
2022/12/20 07:11:37;;;;;;;15.27;13.02;;;;;;;19.30;46.82;102473.34;4787791;30;20054;-57
2022/12/20 07:14:04;;;;;;;16.42;13.52;;;;;;;19.30;46.77;102474.19;4787649;30;20517;-56
2022/12/20 07:16:31;;;;;;;17.30;13.50;;;;;;;19.31;46.79;102475.06;4787482;30;20054;-57
2022/12/20 07:18:58;;;;;;;17.17;13.98;;;;;;;19.30;46.84;102474.19;4787895;30;20391;-57
2022/12/20 07:21:26;;;;;;;17.92;13.85;;;;;;;19.30;46.96;102481.38;4787942;30;20086;-57
2022/12/20 07:23:54;;;;;;;16.13;13.35;;;;;;;19.30;46.83;102484.06;4789956;29;20055;-48
2022/12/20 07:26:21;;;;;;;15.48;13.55;;;;;;;19.29;46.87;102480.53;4791441;30;20051;-49
2022/12/20 07:28:49;;;;;;;17.50;13.15;;;;;;;19.30;46.83;102478.72;4791077;30;20047;-50
2022/12/20 07:31:16;;;;;;;15.60;12.43;;;;;;;19.29;46.70;102485.91;4791269;30;20486;-47
2022/12/20 07:33:43;;;;;;;15.60;12.45;;;;;;;19.27;46.85;102475.22;4790909;30;20055;-47
2022/12/20 07:36:12;;;;;;;17.20;13.32;;;;;;;19.27;46.85;102480.59;4791119;30;20055;-49
2022/12/20 07:38:40;;;;;;;17.70;14.20;;;;;;;19.27;46.92;102475.22;4790905;30;20055;-50
2022/12/20 07:41:10;;;;;;;17.77;13.75;;;;;;;19.28;47.03;102478.78;4790472;30;20059;-48
2022/12/20 07:43:37;;;;;;;17.05;13.68;;;;;;;19.28;46.97;102476.09;4790670;30;20055;-52
2022/12/20 07:46:06;;;;;;;16.25;12.90;;;;;;;19.25;46.88;102477.16;4790447;30;20062;-54
2022/12/20 07:48:35;;;;;;;20.70;14.57;;;;;;;19.26;47.15;102478.88;4790505;29;20051;-50
2022/12/20 07:51:16;;;;;;;15.75;13.00;;;;;;;19.27;47.28;102485.97;4790799;30;20062;-48
2022/12/20 07:53:49;;;;;;;16.77;13.80;;;;;;;19.27;47.06;102488.66;4790573;30;20059;-48
2022/12/20 07:56:19;;;;;;;18.70;14.63;;;;;;;19.28;47.03;102478.78;4790643;29;20059;-48
2022/12/20 07:58:49;;;;;;;17.92;13.75;;;;;;;19.28;47.10;102473.41;4790638;30;20054;-48
2022/12/20 08:01:18;;;;;;;18.88;13.13;;;;;;;19.29;47.14;102475.16;4789201;30;20074;-50
2022/12/20 08:03:49;;;;;;;19.83;13.88;;;;;;;19.31;47.29;102483.13;4790348;30;20068;-55
2022/12/20 08:06:18;;;;;;;21.23;14.00;;;;;;;19.32;47.21;102487.53;4789734;30;20051;-59
2022/12/20 08:08:50;;;;;;;21.42;15.55;;;;;;;19.32;46.83;102496.44;4790915;30;20047;-59
2022/12/20 08:11:20;;;;;;;18.07;14.60;;;;;;;19.34;46.85;102488.31;4790526;30;20051;-57
2022/12/20 08:13:49;;;;;;;18.48;14.60;;;;;;;19.34;47.05;102483.78;4790457;30;20059;-57
2022/12/20 08:16:24;;;;;;;20.92;15.35;;;;;;;19.36;47.16;102489.06;4789889;30;20418;-60
2022/12/20 08:18:51;;;;;;;20.17;15.20;;;;;;;19.37;47.11;102482.75;4789663;30;20059;-58
2022/12/20 08:21:19;;;;;;;19.40;14.80;;;;;;;19.38;47.01;102487.16;4789995;30;20405;-56
2022/12/20 08:23:46;;;;;;;18.80;13.98;;;;;;;19.39;46.80;102486.19;4790340;30;20055;-58
2022/12/20 08:26:13;;;;;;;17.63;14.70;;;;;;;19.39;47.27;102488.88;4790223;30;20043;-56
2022/12/20 08:28:41;;;;;;;22.33;15.57;;;;;;;19.40;47.35;102495.97;4790029;30;20054;-59
2022/12/20 08:31:09;;;;;;;21.50;15.05;;;;;;;19.40;46.45;102493.28;4790145;30;20055;-58
2022/12/20 08:33:37;;;;;;;20.83;15.30;;;;;;;19.41;47.13;102498.59;4789703;29;20414;-55
2022/12/20 08:36:08;;;;;;;20.27;16.10;;;;;;;19.42;46.46;102499.47;4788668;30;20047;-55
2022/12/20 08:38:39;;;;;;;20.92;14.95;;;;;;;19.44;46.97;102503.75;4789331;30;20055;-58
2022/12/20 08:41:09;;;;;;;23.08;17.02;;;;;;;19.43;46.10;102506.53;4789834;30;20055;-58
2022/12/20 08:43:38;;;;;;;30.42;23.25;;;;;;;19.40;44.88;102498.66;4789798;30;20059;-59
2022/12/20 08:46:07;;;;;;;37.13;26.48;;;;;;;19.36;44.17;102492.63;4789477;30;20406;-59
2022/12/20 08:48:34;;;;;;;36.78;26.70;;;;;;;19.34;43.93;102499.06;4789300;30;20051;-58
2022/12/20 08:51:04;;;;;;;32.47;24.40;;;;;;;19.32;44.37;102511.69;4789674;30;20047;-56
2022/12/20 08:53:33;;;;;;;41.45;28.13;;;;;;;19.30;43.69;102500.19;4789404;30;20062;-58
2022/12/20 08:56:10;;;;;;;39.95;29.15;;;;;;;19.28;43.40;102508.31;4789108;29;20383;-58
2022/12/20 08:58:39;;;;;;;38.58;26.83;;;;;;;19.25;44.06;102504.00;4789455;30;20058;-57
2022/12/20 09:01:10;;;;;;;38.90;28.50;;;;;;;19.24;43.59;102504.09;4789406;30;20050;-59
2022/12/20 09:03:39;;;;;;;39.42;29.27;;;;;;;19.23;43.30;102505.03;4789380;30;20058;-59
2022/12/20 09:06:12;;;;;;;44.75;31.83;;;;;;;19.20;42.98;102506.13;4789242;30;20055;-57
2022/12/20 09:08:39;;;;;;;;;;;;;;;19.19;43.05;102507.03;4790124;29;20059;-58
2022/12/20 09:11:10;;;;;;;40.45;30.63;;;;;;;19.16;42.71;102501.88;4789189;30;19933;-56
2022/12/20 09:13:42;;;;;;;41.78;29.83;;;;;;;19.14;42.58;102493.03;4789382;30;20055;-56
2022/12/20 09:16:13;;;;;;;45.20;31.90;;;;;;;19.13;42.60;102498.50;4789150;30;20051;-59
2022/12/20 09:18:41;;;;;;;40.53;29.88;;;;;;;19.12;42.74;102503.00;4788771;30;20055;-59
2022/12/20 09:21:10;;;;;;;40.00;30.42;;;;;;;19.09;42.65;102500.50;4788722;30;20522;-59
2022/12/20 09:23:38;;;;;;;42.50;29.83;;;;;;;19.05;42.87;102493.59;4788641;30;20498;-55
2022/12/20 09:26:09;;;;;;;41.65;30.33;;;;;;;19.05;43.53;102498.09;4788686;30;20062;-57
2022/12/20 09:28:37;;;;;;;42.88;32.15;;;;;;;19.06;42.85;102494.44;4788961;30;20073;-59
2022/12/20 09:31:07;;;;;;;49.17;33.55;;;;;;;19.03;42.60;102490.09;4788700;30;20047;-58
2022/12/20 09:33:34;;;;;;;48.85;33.40;;;;;;;18.99;43.05;102491.25;4788875;30;20432;-58
2022/12/20 09:36:02;;;;;;;45.35;31.33;;;;;;;18.99;43.26;102481.38;4787837;30;20047;-58
2022/12/20 09:38:31;;;;;;;39.80;30.40;;;;;;;19.02;43.09;102483.00;4788826;30;20055;-60
2022/12/20 09:41:04;;;;;;;42.92;32.30;;;;;;;19.04;42.96;102489.19;4788769;29;20057;-60
2022/12/20 09:43:32;;;;;;;45.53;30.52;;;;;;;19.08;43.78;102480.00;4788667;30;20058;-59
2022/12/20 09:46:02;;;;;;;47.22;30.25;;;;;;;19.11;43.77;102477.09;4788409;29;20062;-58
2022/12/20 09:48:36;;;;;;;40.45;26.27;;;;;;;19.14;43.95;102474.25;4788607;30;20055;-58
2022/12/20 09:51:36;;;;;;;34.92;26.10;;;;;;;19.16;43.97;102455.34;4802408;29;20055;-59
2022/12/20 09:54:41;;;;;;;35.85;25.77;;;;;;;19.20;44.41;102464.94;4788273;30;20051;-58
2022/12/20 09:57:08;;;;;;;31.58;24.23;;;;;;;19.21;44.35;102464.00;4790137;29;20066;-57
2022/12/20 09:59:43;;;;;;;29.80;22.42;;;;;;;19.23;44.42;102456.72;4787939;30;20058;-57
2022/12/20 10:02:22;;;;;;;34.67;24.13;;;;;;;19.24;44.52;102450.38;4788432;30;20055;-58
2022/12/20 10:05:16;;;;;;;32.80;23.30;;;;;;;19.24;44.66;102442.31;4788135;30;20055;-56
2022/12/20 10:08:05;;;;;;;29.70;21.83;;;;;;;19.26;44.90;102443.97;4788529;30;20062;-56
2022/12/20 10:10:55;;;;;;;29.75;20.90;;;;;;;19.26;44.60;102435.06;4788280;30;20490;-58
2022/12/20 10:13:35;;;;;;;28.75;21.50;;;;;;;19.27;44.83;102434.94;4787543;30;20063;-58
2022/12/20 10:16:36;;;;;;;32.67;21.70;;;;;;;19.29;44.96;102428.66;4788291;30;20071;-58
2022/12/20 10:19:09;;;;;;;30.60;20.80;;;;;;;19.30;45.27;102438.44;4788153;30;20055;-57
2022/12/20 10:21:46;;;;;;;;;;;;;;;19.31;44.96;102432.09;4787252;30;20402;-56
2022/12/20 10:24:18;;;;;;;31.63;21.35;;;;;;;19.31;44.89;102432.94;4787633;30;19930;-58
2022/12/20 10:26:49;;;;;;;28.20;19.50;;;;;;;19.32;45.27;102423.94;4787661;30;20055;-58
2022/12/20 10:29:18;;;;;;;28.85;20.45;;;;;;;19.32;45.22;102415.88;4787696;30;20059;-58
2022/12/20 10:31:57;;;;;;;28.42;22.00;;;;;;;19.33;44.96;102403.34;4788015;30;20051;-58
2022/12/20 10:34:24;;;;;;;27.45;21.05;;;;;;;19.32;45.32;102415.88;4788051;30;20384;-57
2022/12/20 10:37:19;;;;;;;28.77;20.13;;;;;;;19.34;45.26;102413.13;4788143;30;20051;-57
2022/12/20 10:39:48;;;;;;;26.80;19.52;;;;;;;19.34;45.35;102415.81;4788097;30;20059;-57
2022/12/20 10:42:33;;;;;;;30.38;21.92;;;;;;;19.35;45.53;102417.53;4787790;30;20051;-57
2022/12/20 10:45:01;;;;;;;24.65;19.35;;;;;;;19.34;45.56;102405.06;4788155;30;20051;-58
2022/12/20 10:47:40;;;;;;;29.45;20.73;;;;;;;19.34;45.45;102400.56;4788116;30;20059;-53
2022/12/20 10:50:16;;;;;;;28.73;21.70;;;;;;;19.35;45.23;102396.03;4788174;30;20054;-55
2022/12/20 10:53:00;;;;;;;27.67;20.83;;;;;;;19.34;45.27;102389.81;4787822;30;20160;-54
2022/12/20 10:55:34;;;;;;;32.65;21.48;;;;;;;19.36;45.64;102387.00;4787941;29;20059;-52
2022/12/20 10:58:12;;;;;;;29.45;21.10;;;;;;;19.36;45.78;102392.38;4788882;29;20051;-57
2022/12/20 11:00:40;;;;;;;28.58;21.05;;;;;;;19.36;45.74;102378.97;4791341;30;20073;-58
2022/12/20 11:03:15;;;;;;;27.27;20.20;;;;;;;19.34;45.65;102379.06;4791668;29;20062;-58
2022/12/20 11:06:03;;;;;;;25.00;18.88;;;;;;;19.34;45.58;102379.06;4791345;30;20495;-52
2022/12/20 11:08:32;;;;;;;26.27;19.63;;;;;;;19.35;45.40;102378.09;4791256;30;20058;-52
2022/12/20 11:11:20;;;;;;;28.58;21.50;;;;;;;19.35;45.37;102369.19;4791096;30;20054;-56
2022/12/20 11:13:49;;;;;;;29.05;21.13;;;;;;;19.36;45.53;102358.34;4791323;30;20103;-50
2022/12/20 11:16:27;;;;;;;25.30;20.23;;;;;;;19.35;45.48;102351.25;4791292;30;20074;-55
2022/12/20 11:19:05;;;;;;;29.10;22.65;;;;;;;19.36;45.23;102349.41;4791140;30;20402;-53
2022/12/20 11:21:44;;;;;;;34.47;23.42;;;;;;;19.37;45.35;102354.72;4790921;30;20051;-55
2022/12/20 11:25:05;;;;;;;28.17;21.90;;;;;;;19.37;45.56;102345.81;4791105;30;20059;-56
2022/12/20 11:27:43;;;;;;;25.60;20.40;;;;;;;19.38;45.22;102345.69;4793751;29;20414;-57
2022/12/20 11:30:23;;;;;;;30.00;22.40;;;;;;;19.38;45.23;102331.41;4790548;30;20058;-56
2022/12/20 11:33:03;;;;;;;27.42;20.92;;;;;;;19.36;45.15;102328.78;4790752;30;20055;-57
2022/12/20 11:35:50;;;;;;;26.08;20.48;;;;;;;19.37;45.38;102332.38;4790612;30;20059;-56
2022/12/20 11:38:40;;;;;;;27.52;22.55;;;;;;;19.37;45.07;102319.81;4790868;30;20062;-56
2022/12/20 11:41:43;;;;;;;27.90;21.13;;;;;;;19.37;45.01;102319.81;4790760;30;20051;-58
2022/12/20 11:44:44;;;;;;;28.95;21.25;;;;;;;19.38;44.97;102318.84;4790802;30;20055;-57